sensor_id;sensor_type;location;lat;lon;timestamp;P1;durP1;ratioP1;P2;durP2;ratioP2
4268;SDS011;2148;48.554;7.834;2023-06-10T00:01:28;6.03;;;5.43;;
4268;SDS011;2148;48.554;7.834;2023-06-10T00:03:54;6.40;;;5.80;;
4268;SDS011;2148;48.554;7.834;2023-06-10T00:13:29;6.10;;;5.50;;
4268;SDS011;2148;48.554;7.834;2023-06-10T00:22:32;7.83;;;5.90;;
4268;SDS011;2148;48.554;7.834;2023-06-10T00:28:13;6.80;;;6.17;;
4268;SDS011;2148;48.554;7.834;2023-06-10T00:30:59;6.73;;;6.10;;
4268;SDS011;2148;48.554;7.834;2023-06-10T00:36:13;6.47;;;5.87;;
4268;SDS011;2148;48.554;7.834;2023-06-10T00:38:39;6.77;;;6.17;;
4268;SDS011;2148;48.554;7.834;2023-06-10T00:41:13;6.90;;;6.20;;
4268;SDS011;2148;48.554;7.834;2023-06-10T00:43:47;7.47;;;6.70;;
4268;SDS011;2148;48.554;7.834;2023-06-10T00:46:39;7.27;;;6.27;;
4268;SDS011;2148;48.554;7.834;2023-06-10T00:49:16;6.43;;;5.87;;
4268;SDS011;2148;48.554;7.834;2023-06-10T00:52:18;6.67;;;5.93;;
4268;SDS011;2148;48.554;7.834;2023-06-10T00:57:52;7.10;;;6.50;;
4268;SDS011;2148;48.554;7.834;2023-06-10T01:03:24;6.83;;;6.23;;
4268;SDS011;2148;48.554;7.834;2023-06-10T01:09:06;6.97;;;6.27;;
4268;SDS011;2148;48.554;7.834;2023-06-10T01:19:03;7.10;;;6.57;;
4268;SDS011;2148;48.554;7.834;2023-06-10T01:21:57;6.77;;;6.17;;
4268;SDS011;2148;48.554;7.834;2023-06-10T01:24:35;7.13;;;6.43;;
4268;SDS011;2148;48.554;7.834;2023-06-10T01:30:28;7.17;;;6.47;;
4268;SDS011;2148;48.554;7.834;2023-06-10T01:33:16;6.43;;;5.93;;
4268;SDS011;2148;48.554;7.834;2023-06-10T01:35:53;6.70;;;6.10;;
4268;SDS011;2148;48.554;7.834;2023-06-10T01:38:47;6.93;;;6.27;;
4268;SDS011;2148;48.554;7.834;2023-06-10T01:41:26;7.13;;;6.50;;
4268;SDS011;2148;48.554;7.834;2023-06-10T01:44:03;7.37;;;6.67;;
4268;SDS011;2148;48.554;7.834;2023-06-10T01:46:29;6.93;;;6.33;;
4268;SDS011;2148;48.554;7.834;2023-06-10T01:52:23;6.97;;;6.27;;
4268;SDS011;2148;48.554;7.834;2023-06-10T01:55:38;6.53;;;6.03;;
4268;SDS011;2148;48.554;7.834;2023-06-10T01:58:16;7.70;;;7.00;;
4268;SDS011;2148;48.554;7.834;2023-06-10T02:00:53;7.33;;;6.63;;
4268;SDS011;2148;48.554;7.834;2023-06-10T02:03:41;6.77;;;6.27;;
4268;SDS011;2148;48.554;7.834;2023-06-10T02:06:33;7.00;;;6.40;;
4268;SDS011;2148;48.554;7.834;2023-06-10T02:09:08;7.50;;;6.80;;
4268;SDS011;2148;48.554;7.834;2023-06-10T02:11:37;7.13;;;6.43;;
4268;SDS011;2148;48.554;7.834;2023-06-10T02:14:02;7.30;;;6.70;;
4268;SDS011;2148;48.554;7.834;2023-06-10T02:16:28;7.23;;;6.53;;
4268;SDS011;2148;48.554;7.834;2023-06-10T02:18:59;7.30;;;6.70;;
4268;SDS011;2148;48.554;7.834;2023-06-10T02:22:01;7.23;;;6.53;;
4268;SDS011;2148;48.554;7.834;2023-06-10T02:24:27;10.17;;;7.70;;
4268;SDS011;2148;48.554;7.834;2023-06-10T02:26:56;8.10;;;7.23;;
4268;SDS011;2148;48.554;7.834;2023-06-10T02:29:32;7.27;;;6.67;;
4268;SDS011;2148;48.554;7.834;2023-06-10T02:32:19;7.50;;;6.87;;
4268;SDS011;2148;48.554;7.834;2023-06-10T02:34:54;9.17;;;7.30;;
4268;SDS011;2148;48.554;7.834;2023-06-10T02:37:41;7.67;;;7.07;;
4268;SDS011;2148;48.554;7.834;2023-06-10T02:40:42;8.17;;;7.17;;
4268;SDS011;2148;48.554;7.834;2023-06-10T02:43:17;7.57;;;6.97;;
4268;SDS011;2148;48.554;7.834;2023-06-10T02:45:42;7.53;;;6.93;;
4268;SDS011;2148;48.554;7.834;2023-06-10T02:48:11;7.97;;;7.27;;
4268;SDS011;2148;48.554;7.834;2023-06-10T02:50:42;8.17;;;7.40;;
4268;SDS011;2148;48.554;7.834;2023-06-10T02:53:11;9.83;;;7.40;;
4268;SDS011;2148;48.554;7.834;2023-06-10T02:55:54;7.90;;;7.20;;
4268;SDS011;2148;48.554;7.834;2023-06-10T02:58:25;8.33;;;7.53;;
4268;SDS011;2148;48.554;7.834;2023-06-10T03:01:03;9.23;;;7.23;;
4268;SDS011;2148;48.554;7.834;2023-06-10T03:03:34;7.53;;;6.77;;
4268;SDS011;2148;48.554;7.834;2023-06-10T03:06:23;7.90;;;7.20;;
4268;SDS011;2148;48.554;7.834;2023-06-10T03:09:47;8.10;;;7.30;;
4268;SDS011;2148;48.554;7.834;2023-06-10T03:12:21;8.07;;;7.37;;
4268;SDS011;2148;48.554;7.834;2023-06-10T03:14:49;8.90;;;7.43;;
4268;SDS011;2148;48.554;7.834;2023-06-10T03:17:38;8.20;;;7.40;;
4268;SDS011;2148;48.554;7.834;2023-06-10T03:20:05;7.83;;;7.17;;
4268;SDS011;2148;48.554;7.834;2023-06-10T03:22:56;7.77;;;7.07;;
4268;SDS011;2148;48.554;7.834;2023-06-10T03:25:22;7.83;;;7.13;;
4268;SDS011;2148;48.554;7.834;2023-06-10T03:28:24;8.23;;;7.07;;
4268;SDS011;2148;48.554;7.834;2023-06-10T03:30:40;7.60;;;7.00;;
4268;SDS011;2148;48.554;7.834;2023-06-10T03:33:05;7.63;;;7.03;;
4268;SDS011;2148;48.554;7.834;2023-06-10T03:35:30;8.43;;;7.60;;
4268;SDS011;2148;48.554;7.834;2023-06-10T03:37:57;8.10;;;7.30;;
4268;SDS011;2148;48.554;7.834;2023-06-10T03:40:23;8.27;;;7.47;;
4268;SDS011;2148;48.554;7.834;2023-06-10T03:42:48;7.97;;;7.20;;
4268;SDS011;2148;48.554;7.834;2023-06-10T03:45:14;7.70;;;7.10;;
4268;SDS011;2148;48.554;7.834;2023-06-10T03:47:39;8.07;;;7.47;;
4268;SDS011;2148;48.554;7.834;2023-06-10T03:50:06;8.20;;;7.50;;
4268;SDS011;2148;48.554;7.834;2023-06-10T03:52:33;8.13;;;7.43;;
4268;SDS011;2148;48.554;7.834;2023-06-10T03:54:58;7.70;;;7.00;;
4268;SDS011;2148;48.554;7.834;2023-06-10T03:57:24;8.30;;;7.60;;
4268;SDS011;2148;48.554;7.834;2023-06-10T03:59:49;7.80;;;7.10;;
4268;SDS011;2148;48.554;7.834;2023-06-10T04:02:14;8.00;;;7.30;;
4268;SDS011;2148;48.554;7.834;2023-06-10T04:04:39;8.10;;;7.40;;
4268;SDS011;2148;48.554;7.834;2023-06-10T04:07:06;8.13;;;7.43;;
4268;SDS011;2148;48.554;7.834;2023-06-10T04:09:31;7.57;;;7.07;;
4268;SDS011;2148;48.554;7.834;2023-06-10T04:11:56;7.67;;;6.90;;
4268;SDS011;2148;48.554;7.834;2023-06-10T04:14:22;7.80;;;7.20;;
4268;SDS011;2148;48.554;7.834;2023-06-10T04:16:47;8.30;;;7.43;;
4268;SDS011;2148;48.554;7.834;2023-06-10T04:19:12;8.63;;;7.50;;
4268;SDS011;2148;48.554;7.834;2023-06-10T04:21:38;8.10;;;7.40;;
4268;SDS011;2148;48.554;7.834;2023-06-10T04:24:03;8.50;;;7.73;;
4268;SDS011;2148;48.554;7.834;2023-06-10T04:26:28;8.57;;;7.77;;
4268;SDS011;2148;48.554;7.834;2023-06-10T04:28:54;7.97;;;7.33;;
4268;SDS011;2148;48.554;7.834;2023-06-10T04:31:19;8.10;;;7.50;;
4268;SDS011;2148;48.554;7.834;2023-06-10T04:33:45;8.73;;;7.93;;
4268;SDS011;2148;48.554;7.834;2023-06-10T04:36:10;8.40;;;7.60;;
4268;SDS011;2148;48.554;7.834;2023-06-10T04:38:36;8.93;;;7.93;;
4268;SDS011;2148;48.554;7.834;2023-06-10T04:41:01;10.17;;;7.47;;
4268;SDS011;2148;48.554;7.834;2023-06-10T04:43:27;8.73;;;7.50;;
4268;SDS011;2148;48.554;7.834;2023-06-10T04:45:53;8.50;;;7.60;;
4268;SDS011;2148;48.554;7.834;2023-06-10T04:48:19;8.53;;;7.83;;
4268;SDS011;2148;48.554;7.834;2023-06-10T04:50:44;9.03;;;8.27;;
4268;SDS011;2148;48.554;7.834;2023-06-10T04:53:09;8.53;;;7.73;;
4268;SDS011;2148;48.554;7.834;2023-06-10T04:55:34;8.63;;;7.83;;
4268;SDS011;2148;48.554;7.834;2023-06-10T04:58:01;8.43;;;7.70;;
4268;SDS011;2148;48.554;7.834;2023-06-10T05:00:26;7.90;;;7.13;;
4268;SDS011;2148;48.554;7.834;2023-06-10T05:02:52;9.50;;;7.57;;
4268;SDS011;2148;48.554;7.834;2023-06-10T05:05:17;8.97;;;8.07;;
4268;SDS011;2148;48.554;7.834;2023-06-10T05:07:42;7.67;;;7.07;;
4268;SDS011;2148;48.554;7.834;2023-06-10T05:10:08;7.77;;;7.17;;
4268;SDS011;2148;48.554;7.834;2023-06-10T05:12:33;8.47;;;7.67;;
4268;SDS011;2148;48.554;7.834;2023-06-10T05:14:59;8.43;;;7.63;;
4268;SDS011;2148;48.554;7.834;2023-06-10T05:17:24;8.77;;;7.90;;
4268;SDS011;2148;48.554;7.834;2023-06-10T05:19:50;9.00;;;8.13;;
4268;SDS011;2148;48.554;7.834;2023-06-10T05:22:15;8.43;;;7.73;;
4268;SDS011;2148;48.554;7.834;2023-06-10T05:24:42;8.83;;;8.13;;
4268;SDS011;2148;48.554;7.834;2023-06-10T05:27:08;8.73;;;8.03;;
4268;SDS011;2148;48.554;7.834;2023-06-10T05:29:34;8.20;;;7.60;;
4268;SDS011;2148;48.554;7.834;2023-06-10T05:31:59;9.10;;;8.30;;
4268;SDS011;2148;48.554;7.834;2023-06-10T05:34:27;9.40;;;8.47;;
4268;SDS011;2148;48.554;7.834;2023-06-10T05:36:53;8.93;;;8.23;;
4268;SDS011;2148;48.554;7.834;2023-06-10T05:39:18;8.63;;;7.83;;
4268;SDS011;2148;48.554;7.834;2023-06-10T05:41:44;8.93;;;8.13;;
4268;SDS011;2148;48.554;7.834;2023-06-10T05:44:11;10.90;;;8.47;;
4268;SDS011;2148;48.554;7.834;2023-06-10T05:46:36;8.33;;;7.63;;
4268;SDS011;2148;48.554;7.834;2023-06-10T05:49:01;8.20;;;7.40;;
4268;SDS011;2148;48.554;7.834;2023-06-10T05:51:27;9.33;;;8.43;;
4268;SDS011;2148;48.554;7.834;2023-06-10T05:53:53;8.70;;;7.97;;
4268;SDS011;2148;48.554;7.834;2023-06-10T05:56:18;8.37;;;7.57;;
4268;SDS011;2148;48.554;7.834;2023-06-10T05:58:44;8.77;;;8.03;;
4268;SDS011;2148;48.554;7.834;2023-06-10T06:01:09;8.73;;;8.03;;
4268;SDS011;2148;48.554;7.834;2023-06-10T06:03:34;8.83;;;7.97;;
4268;SDS011;2148;48.554;7.834;2023-06-10T06:05:59;8.73;;;7.90;;
4268;SDS011;2148;48.554;7.834;2023-06-10T06:08:25;11.70;;;8.77;;
4268;SDS011;2148;48.554;7.834;2023-06-10T06:10:50;9.07;;;8.27;;
4268;SDS011;2148;48.554;7.834;2023-06-10T06:13:15;9.03;;;8.33;;
4268;SDS011;2148;48.554;7.834;2023-06-10T06:15:40;8.63;;;7.93;;
4268;SDS011;2148;48.554;7.834;2023-06-10T06:18:06;9.20;;;8.40;;
4268;SDS011;2148;48.554;7.834;2023-06-10T06:20:31;9.23;;;8.33;;
4268;SDS011;2148;48.554;7.834;2023-06-10T06:22:56;9.67;;;8.77;;
4268;SDS011;2148;48.554;7.834;2023-06-10T06:25:22;8.87;;;8.03;;
4268;SDS011;2148;48.554;7.834;2023-06-10T06:27:48;8.23;;;7.53;;
4268;SDS011;2148;48.554;7.834;2023-06-10T06:30:13;7.77;;;7.17;;
4268;SDS011;2148;48.554;7.834;2023-06-10T06:32:38;8.70;;;7.90;;
4268;SDS011;2148;48.554;7.834;2023-06-10T06:35:04;9.30;;;8.27;;
4268;SDS011;2148;48.554;7.834;2023-06-10T06:37:32;9.20;;;8.33;;
4268;SDS011;2148;48.554;7.834;2023-06-10T06:39:58;9.13;;;8.33;;
4268;SDS011;2148;48.554;7.834;2023-06-10T06:42:23;8.83;;;8.00;;
4268;SDS011;2148;48.554;7.834;2023-06-10T06:44:48;8.30;;;7.60;;
4268;SDS011;2148;48.554;7.834;2023-06-10T06:47:13;8.37;;;7.67;;
4268;SDS011;2148;48.554;7.834;2023-06-10T06:49:39;8.93;;;8.17;;
4268;SDS011;2148;48.554;7.834;2023-06-10T06:52:04;9.30;;;8.27;;
4268;SDS011;2148;48.554;7.834;2023-06-10T06:54:30;8.23;;;7.53;;
4268;SDS011;2148;48.554;7.834;2023-06-10T06:56:56;8.03;;;7.40;;
4268;SDS011;2148;48.554;7.834;2023-06-10T06:59:22;8.03;;;7.37;;
4268;SDS011;2148;48.554;7.834;2023-06-10T07:01:47;9.33;;;8.53;;
4268;SDS011;2148;48.554;7.834;2023-06-10T07:04:14;8.83;;;7.87;;
4268;SDS011;2148;48.554;7.834;2023-06-10T07:06:40;8.77;;;7.87;;
4268;SDS011;2148;48.554;7.834;2023-06-10T07:09:05;9.20;;;8.30;;
4268;SDS011;2148;48.554;7.834;2023-06-10T07:11:32;8.97;;;8.07;;
4268;SDS011;2148;48.554;7.834;2023-06-10T07:13:57;8.53;;;7.70;;
4268;SDS011;2148;48.554;7.834;2023-06-10T07:16:22;8.53;;;7.83;;
4268;SDS011;2148;48.554;7.834;2023-06-10T07:18:47;8.57;;;7.83;;
4268;SDS011;2148;48.554;7.834;2023-06-10T07:21:13;8.80;;;7.90;;
4268;SDS011;2148;48.554;7.834;2023-06-10T07:23:41;7.93;;;7.33;;
4268;SDS011;2148;48.554;7.834;2023-06-10T07:26:06;8.80;;;8.07;;
4268;SDS011;2148;48.554;7.834;2023-06-10T07:28:32;8.70;;;7.93;;
4268;SDS011;2148;48.554;7.834;2023-06-10T07:30:58;8.10;;;7.40;;
4268;SDS011;2148;48.554;7.834;2023-06-10T07:33:23;9.40;;;8.50;;
4268;SDS011;2148;48.554;7.834;2023-06-10T07:35:48;9.80;;;9.00;;
4268;SDS011;2148;48.554;7.834;2023-06-10T07:38:13;8.17;;;7.40;;
4268;SDS011;2148;48.554;7.834;2023-06-10T07:40:38;9.30;;;8.23;;
4268;SDS011;2148;48.554;7.834;2023-06-10T07:43:04;8.23;;;7.63;;
4268;SDS011;2148;48.554;7.834;2023-06-10T07:45:29;8.30;;;7.60;;
4268;SDS011;2148;48.554;7.834;2023-06-10T07:47:55;7.53;;;6.87;;
4268;SDS011;2148;48.554;7.834;2023-06-10T07:50:20;7.90;;;7.20;;
4268;SDS011;2148;48.554;7.834;2023-06-10T07:52:45;7.60;;;7.00;;
4268;SDS011;2148;48.554;7.834;2023-06-10T07:55:11;7.50;;;6.90;;
4268;SDS011;2148;48.554;7.834;2023-06-10T07:57:36;9.10;;;7.33;;
4268;SDS011;2148;48.554;7.834;2023-06-10T08:00:03;8.23;;;7.53;;
4268;SDS011;2148;48.554;7.834;2023-06-10T08:02:29;8.43;;;7.67;;
4268;SDS011;2148;48.554;7.834;2023-06-10T08:04:55;7.70;;;7.03;;
4268;SDS011;2148;48.554;7.834;2023-06-10T08:07:20;7.60;;;6.90;;
4268;SDS011;2148;48.554;7.834;2023-06-10T08:09:47;7.87;;;7.17;;
4268;SDS011;2148;48.554;7.834;2023-06-10T08:12:12;7.47;;;6.77;;
4268;SDS011;2148;48.554;7.834;2023-06-10T08:14:37;7.80;;;7.10;;
4268;SDS011;2148;48.554;7.834;2023-06-10T08:17:03;7.53;;;6.87;;
4268;SDS011;2148;48.554;7.834;2023-06-10T08:19:30;7.80;;;7.20;;
4268;SDS011;2148;48.554;7.834;2023-06-10T08:21:56;7.80;;;7.10;;
4268;SDS011;2148;48.554;7.834;2023-06-10T08:24:21;7.40;;;6.70;;
4268;SDS011;2148;48.554;7.834;2023-06-10T08:26:46;7.43;;;6.73;;
4268;SDS011;2148;48.554;7.834;2023-06-10T08:29:12;7.47;;;6.87;;
4268;SDS011;2148;48.554;7.834;2023-06-10T08:31:37;8.97;;;7.13;;
4268;SDS011;2148;48.554;7.834;2023-06-10T08:34:06;7.23;;;6.53;;
4268;SDS011;2148;48.554;7.834;2023-06-10T08:36:31;8.03;;;7.33;;
4268;SDS011;2148;48.554;7.834;2023-06-10T08:38:56;7.57;;;6.87;;
4268;SDS011;2148;48.554;7.834;2023-06-10T08:41:22;8.20;;;7.40;;
4268;SDS011;2148;48.554;7.834;2023-06-10T08:43:53;7.50;;;6.90;;
4268;SDS011;2148;48.554;7.834;2023-06-10T08:46:22;8.37;;;7.57;;
4268;SDS011;2148;48.554;7.834;2023-06-10T08:48:47;7.30;;;6.70;;
4268;SDS011;2148;48.554;7.834;2023-06-10T08:51:14;7.47;;;6.67;;
4268;SDS011;2148;48.554;7.834;2023-06-10T08:53:46;7.83;;;7.03;;
4268;SDS011;2148;48.554;7.834;2023-06-10T08:56:14;7.50;;;6.80;;
4268;SDS011;2148;48.554;7.834;2023-06-10T08:58:41;7.87;;;7.07;;
4268;SDS011;2148;48.554;7.834;2023-06-10T09:01:07;6.67;;;6.17;;
4268;SDS011;2148;48.554;7.834;2023-06-10T09:03:34;7.47;;;6.77;;
4268;SDS011;2148;48.554;7.834;2023-06-10T09:06:02;7.40;;;6.73;;
4268;SDS011;2148;48.554;7.834;2023-06-10T09:08:29;7.43;;;6.70;;
4268;SDS011;2148;48.554;7.834;2023-06-10T09:10:55;6.97;;;6.30;;
4268;SDS011;2148;48.554;7.834;2023-06-10T09:13:21;7.57;;;6.97;;
4268;SDS011;2148;48.554;7.834;2023-06-10T09:15:47;8.27;;;6.50;;
4268;SDS011;2148;48.554;7.834;2023-06-10T09:18:14;7.10;;;6.50;;
4268;SDS011;2148;48.554;7.834;2023-06-10T09:20:39;8.73;;;6.80;;
4268;SDS011;2148;48.554;7.834;2023-06-10T09:23:05;8.37;;;7.67;;
4268;SDS011;2148;48.554;7.834;2023-06-10T09:25:37;6.37;;;5.87;;
4268;SDS011;2148;48.554;7.834;2023-06-10T09:28:03;7.37;;;6.67;;
4268;SDS011;2148;48.554;7.834;2023-06-10T09:30:32;7.37;;;6.77;;
4268;SDS011;2148;48.554;7.834;2023-06-10T09:33:03;7.37;;;6.67;;
4268;SDS011;2148;48.554;7.834;2023-06-10T09:35:34;7.70;;;7.10;;
4268;SDS011;2148;48.554;7.834;2023-06-10T09:38:00;7.30;;;6.70;;
4268;SDS011;2148;48.554;7.834;2023-06-10T09:40:26;7.13;;;6.53;;
4268;SDS011;2148;48.554;7.834;2023-06-10T09:42:56;6.70;;;6.10;;
4268;SDS011;2148;48.554;7.834;2023-06-10T09:45:23;7.13;;;6.53;;
4268;SDS011;2148;48.554;7.834;2023-06-10T09:47:52;7.33;;;6.60;;
4268;SDS011;2148;48.554;7.834;2023-06-10T09:50:18;7.33;;;6.73;;
4268;SDS011;2148;48.554;7.834;2023-06-10T09:52:45;7.20;;;6.50;;
4268;SDS011;2148;48.554;7.834;2023-06-10T09:55:11;6.73;;;6.23;;
4268;SDS011;2148;48.554;7.834;2023-06-10T09:57:36;7.80;;;6.67;;
4268;SDS011;2148;48.554;7.834;2023-06-10T10:00:05;6.80;;;6.23;;
4268;SDS011;2148;48.554;7.834;2023-06-10T10:02:32;7.13;;;6.43;;
4268;SDS011;2148;48.554;7.834;2023-06-10T10:05:09;7.43;;;6.07;;
4268;SDS011;2148;48.554;7.834;2023-06-10T10:07:34;6.30;;;5.80;;
4268;SDS011;2148;48.554;7.834;2023-06-10T10:10:00;5.93;;;5.43;;
4268;SDS011;2148;48.554;7.834;2023-06-10T10:12:25;6.53;;;5.30;;
4268;SDS011;2148;48.554;7.834;2023-06-10T10:14:51;7.33;;;5.73;;
4268;SDS011;2148;48.554;7.834;2023-06-10T10:17:17;6.00;;;5.50;;
4268;SDS011;2148;48.554;7.834;2023-06-10T10:19:45;6.30;;;5.70;;
4268;SDS011;2148;48.554;7.834;2023-06-10T10:22:15;5.87;;;5.37;;
4268;SDS011;2148;48.554;7.834;2023-06-10T10:24:45;6.93;;;5.40;;
4268;SDS011;2148;48.554;7.834;2023-06-10T10:27:17;5.87;;;4.87;;
4268;SDS011;2148;48.554;7.834;2023-06-10T10:29:46;5.57;;;5.07;;
4268;SDS011;2148;48.554;7.834;2023-06-10T10:32:13;5.40;;;5.00;;
4268;SDS011;2148;48.554;7.834;2023-06-10T10:37:24;5.57;;;5.10;;
4268;SDS011;2148;48.554;7.834;2023-06-10T10:39:49;6.13;;;5.63;;
4268;SDS011;2148;48.554;7.834;2023-06-10T10:42:15;6.00;;;5.50;;
4268;SDS011;2148;48.554;7.834;2023-06-10T10:44:41;5.67;;;5.17;;
4268;SDS011;2148;48.554;7.834;2023-06-10T10:47:10;5.87;;;5.37;;
4268;SDS011;2148;48.554;7.834;2023-06-10T10:49:37;5.73;;;5.13;;
4268;SDS011;2148;48.554;7.834;2023-06-10T10:52:02;5.90;;;5.50;;
4268;SDS011;2148;48.554;7.834;2023-06-10T10:54:31;5.13;;;4.73;;
4268;SDS011;2148;48.554;7.834;2023-06-10T10:57:14;5.73;;;5.10;;
4268;SDS011;2148;48.554;7.834;2023-06-10T10:59:44;5.70;;;5.20;;
4268;SDS011;2148;48.554;7.834;2023-06-10T11:02:16;5.50;;;5.10;;
4268;SDS011;2148;48.554;7.834;2023-06-10T11:04:58;6.43;;;5.10;;
4268;SDS011;2148;48.554;7.834;2023-06-10T11:07:25;7.28;;;5.40;;
4268;SDS011;2148;48.554;7.834;2023-06-10T11:10:00;6.07;;;5.20;;
4268;SDS011;2148;48.554;7.834;2023-06-10T11:12:49;5.37;;;4.97;;
4268;SDS011;2148;48.554;7.834;2023-06-10T11:15:27;5.47;;;4.97;;
4268;SDS011;2148;48.554;7.834;2023-06-10T11:18:13;5.27;;;4.87;;
4268;SDS011;2148;48.554;7.834;2023-06-10T11:26:43;5.10;;;4.70;;
4268;SDS011;2148;48.554;7.834;2023-06-10T11:34:05;5.80;;;4.77;;
4268;SDS011;2148;48.554;7.834;2023-06-10T11:36:32;5.20;;;4.80;;
4268;SDS011;2148;48.554;7.834;2023-06-10T11:39:00;5.50;;;5.00;;
4268;SDS011;2148;48.554;7.834;2023-06-10T11:41:27;6.27;;;4.80;;
4268;SDS011;2148;48.554;7.834;2023-06-10T11:43:54;5.07;;;4.67;;
4268;SDS011;2148;48.554;7.834;2023-06-10T11:46:23;5.73;;;4.70;;
4268;SDS011;2148;48.554;7.834;2023-06-10T11:48:52;4.90;;;4.50;;
4268;SDS011;2148;48.554;7.834;2023-06-10T11:51:32;5.47;;;5.00;;
4268;SDS011;2148;48.554;7.834;2023-06-10T11:53:59;4.60;;;4.20;;
4268;SDS011;2148;48.554;7.834;2023-06-10T11:56:26;5.05;;;4.65;;
4268;SDS011;2148;48.554;7.834;2023-06-10T11:58:53;5.13;;;4.72;;
4268;SDS011;2148;48.554;7.834;2023-06-10T12:01:20;5.40;;;5.00;;
4268;SDS011;2148;48.554;7.834;2023-06-10T12:03:46;4.63;;;4.22;;
4268;SDS011;2148;48.554;7.834;2023-06-10T12:06:12;4.15;;;3.85;;
4268;SDS011;2148;48.554;7.834;2023-06-10T12:08:41;5.15;;;4.72;;
4268;SDS011;2148;48.554;7.834;2023-06-10T12:11:07;5.13;;;4.70;;
4268;SDS011;2148;48.554;7.834;2023-06-10T12:13:33;5.18;;;4.60;;
4268;SDS011;2148;48.554;7.834;2023-06-10T12:16:08;5.28;;;4.78;;
4268;SDS011;2148;48.554;7.834;2023-06-10T12:18:34;4.50;;;4.10;;
4268;SDS011;2148;48.554;7.834;2023-06-10T12:20:59;5.10;;;4.60;;
4268;SDS011;2148;48.554;7.834;2023-06-10T12:23:25;4.75;;;4.45;;
4268;SDS011;2148;48.554;7.834;2023-06-10T12:25:54;4.90;;;4.50;;
4268;SDS011;2148;48.554;7.834;2023-06-10T12:28:24;5.27;;;4.77;;
4268;SDS011;2148;48.554;7.834;2023-06-10T12:30:51;4.63;;;4.22;;
4268;SDS011;2148;48.554;7.834;2023-06-10T12:33:16;4.80;;;4.40;;
4268;SDS011;2148;48.554;7.834;2023-06-10T12:35:52;4.87;;;4.47;;
4268;SDS011;2148;48.554;7.834;2023-06-10T12:38:24;5.00;;;4.60;;
4268;SDS011;2148;48.554;7.834;2023-06-10T12:40:52;4.77;;;4.43;;
4268;SDS011;2148;48.554;7.834;2023-06-10T12:43:20;5.13;;;4.70;;
4268;SDS011;2148;48.554;7.834;2023-06-10T12:45:46;5.47;;;4.80;;
4268;SDS011;2148;48.554;7.834;2023-06-10T12:48:16;5.43;;;4.80;;
4268;SDS011;2148;48.554;7.834;2023-06-10T12:50:53;8.17;;;4.80;;
4268;SDS011;2148;48.554;7.834;2023-06-10T12:53:23;6.07;;;4.25;;
4268;SDS011;2148;48.554;7.834;2023-06-10T12:55:49;6.70;;;4.57;;
4268;SDS011;2148;48.554;7.834;2023-06-10T12:58:15;5.03;;;4.53;;
4268;SDS011;2148;48.554;7.834;2023-06-10T13:00:41;4.77;;;4.37;;
4268;SDS011;2148;48.554;7.834;2023-06-10T13:03:07;5.33;;;4.83;;
4268;SDS011;2148;48.554;7.834;2023-06-10T13:05:34;5.25;;;4.72;;
4268;SDS011;2148;48.554;7.834;2023-06-10T13:08:02;5.75;;;4.38;;
4268;SDS011;2148;48.554;7.834;2023-06-10T13:10:27;7.43;;;4.33;;
4268;SDS011;2148;48.554;7.834;2023-06-10T13:12:53;5.20;;;4.70;;
4268;SDS011;2148;48.554;7.834;2023-06-10T13:15:19;5.20;;;4.80;;
4268;SDS011;2148;48.554;7.834;2023-06-10T13:17:45;4.97;;;4.47;;
4268;SDS011;2148;48.554;7.834;2023-06-10T13:20:14;5.60;;;4.30;;
4268;SDS011;2148;48.554;7.834;2023-06-10T13:22:39;4.93;;;4.47;;
4268;SDS011;2148;48.554;7.834;2023-06-10T13:25:05;5.22;;;4.72;;
4268;SDS011;2148;48.554;7.834;2023-06-10T13:27:32;4.93;;;4.40;;
4268;SDS011;2148;48.554;7.834;2023-06-10T13:29:58;5.82;;;4.28;;
4268;SDS011;2148;48.554;7.834;2023-06-10T13:32:23;4.15;;;3.83;;
4268;SDS011;2148;48.554;7.834;2023-06-10T13:34:49;5.05;;;4.65;;
4268;SDS011;2148;48.554;7.834;2023-06-10T13:37:14;4.93;;;4.53;;
4268;SDS011;2148;48.554;7.834;2023-06-10T13:39:42;5.20;;;4.70;;
4268;SDS011;2148;48.554;7.834;2023-06-10T13:42:08;5.05;;;4.65;;
4268;SDS011;2148;48.554;7.834;2023-06-10T13:44:34;5.00;;;4.60;;
4268;SDS011;2148;48.554;7.834;2023-06-10T13:47:01;4.97;;;4.57;;
4268;SDS011;2148;48.554;7.834;2023-06-10T13:49:27;4.38;;;3.97;;
4268;SDS011;2148;48.554;7.834;2023-06-10T13:51:53;4.55;;;4.03;;
4268;SDS011;2148;48.554;7.834;2023-06-10T13:54:18;4.60;;;4.20;;
4268;SDS011;2148;48.554;7.834;2023-06-10T13:56:43;4.85;;;4.38;;
4268;SDS011;2148;48.554;7.834;2023-06-10T13:59:09;4.40;;;4.10;;
4268;SDS011;2148;48.554;7.834;2023-06-10T14:01:34;4.90;;;4.50;;
4268;SDS011;2148;48.554;7.834;2023-06-10T14:04:00;5.05;;;4.55;;
4268;SDS011;2148;48.554;7.834;2023-06-10T14:06:25;6.55;;;4.60;;
4268;SDS011;2148;48.554;7.834;2023-06-10T14:08:51;5.25;;;4.68;;
4268;SDS011;2148;48.554;7.834;2023-06-10T14:11:16;4.75;;;4.25;;
4268;SDS011;2148;48.554;7.834;2023-06-10T14:13:42;5.95;;;4.85;;
4268;SDS011;2148;48.554;7.834;2023-06-10T14:16:07;4.72;;;4.20;;
4268;SDS011;2148;48.554;7.834;2023-06-10T14:18:32;4.50;;;4.10;;
4268;SDS011;2148;48.554;7.834;2023-06-10T14:20:58;4.80;;;4.40;;
4268;SDS011;2148;48.554;7.834;2023-06-10T14:23:23;5.43;;;4.95;;
4268;SDS011;2148;48.554;7.834;2023-06-10T14:25:50;5.35;;;4.85;;
4268;SDS011;2148;48.554;7.834;2023-06-10T14:28:16;6.75;;;4.85;;
4268;SDS011;2148;48.554;7.834;2023-06-10T14:30:41;5.30;;;4.80;;
4268;SDS011;2148;48.554;7.834;2023-06-10T14:33:06;5.13;;;4.68;;
4268;SDS011;2148;48.554;7.834;2023-06-10T14:35:32;6.10;;;5.70;;
4268;SDS011;2148;48.554;7.834;2023-06-10T14:37:57;5.43;;;5.03;;
4268;SDS011;2148;48.554;7.834;2023-06-10T14:40:22;5.00;;;4.60;;
4268;SDS011;2148;48.554;7.834;2023-06-10T14:42:49;6.35;;;4.50;;
4268;SDS011;2148;48.554;7.834;2023-06-10T14:45:15;4.93;;;4.50;;
4268;SDS011;2148;48.554;7.834;2023-06-10T14:47:40;5.22;;;4.65;;
4268;SDS011;2148;48.554;7.834;2023-06-10T14:50:06;6.82;;;4.97;;
4268;SDS011;2148;48.554;7.834;2023-06-10T14:52:31;5.05;;;4.65;;
4268;SDS011;2148;48.554;7.834;2023-06-10T14:54:57;5.00;;;4.60;;
4268;SDS011;2148;48.554;7.834;2023-06-10T14:57:22;4.80;;;4.50;;
4268;SDS011;2148;48.554;7.834;2023-06-10T14:59:48;5.47;;;4.97;;
4268;SDS011;2148;48.554;7.834;2023-06-10T15:02:13;5.10;;;4.70;;
4268;SDS011;2148;48.554;7.834;2023-06-10T15:04:38;5.13;;;4.65;;
4268;SDS011;2148;48.554;7.834;2023-06-10T15:07:04;5.60;;;4.88;;
4268;SDS011;2148;48.554;7.834;2023-06-10T15:09:29;5.28;;;4.78;;
4268;SDS011;2148;48.554;7.834;2023-06-10T15:11:55;5.65;;;5.18;;
4268;SDS011;2148;48.554;7.834;2023-06-10T15:14:20;5.45;;;5.00;;
4268;SDS011;2148;48.554;7.834;2023-06-10T15:16:45;5.13;;;4.72;;
4268;SDS011;2148;48.554;7.834;2023-06-10T15:19:11;6.55;;;6.05;;
4268;SDS011;2148;48.554;7.834;2023-06-10T15:21:36;5.82;;;5.22;;
4268;SDS011;2148;48.554;7.834;2023-06-10T15:24:02;5.38;;;4.60;;
4268;SDS011;2148;48.554;7.834;2023-06-10T15:26:27;4.97;;;4.55;;
4268;SDS011;2148;48.554;7.834;2023-06-10T15:28:53;5.30;;;4.45;;
4268;SDS011;2148;48.554;7.834;2023-06-10T15:31:18;5.50;;;4.95;;
4268;SDS011;2148;48.554;7.834;2023-06-10T15:33:44;5.90;;;5.40;;
4268;SDS011;2148;48.554;7.834;2023-06-10T15:36:09;5.75;;;4.90;;
4268;SDS011;2148;48.554;7.834;2023-06-10T15:38:34;5.47;;;4.97;;
4268;SDS011;2148;48.554;7.834;2023-06-10T15:41:00;6.03;;;4.80;;
4268;SDS011;2148;48.554;7.834;2023-06-10T15:43:25;5.75;;;5.25;;
4268;SDS011;2148;48.554;7.834;2023-06-10T15:45:51;4.93;;;4.53;;
4268;SDS011;2148;48.554;7.834;2023-06-10T15:48:16;5.07;;;4.18;;
4268;SDS011;2148;48.554;7.834;2023-06-10T15:50:41;5.47;;;4.70;;
4268;SDS011;2148;48.554;7.834;2023-06-10T15:53:07;5.40;;;4.90;;
4268;SDS011;2148;48.554;7.834;2023-06-10T15:55:33;6.57;;;4.90;;
4268;SDS011;2148;48.554;7.834;2023-06-10T15:57:58;5.57;;;5.07;;
4268;SDS011;2148;48.554;7.834;2023-06-10T16:00:25;5.15;;;4.70;;
4268;SDS011;2148;48.554;7.834;2023-06-10T16:02:51;4.65;;;4.10;;
4268;SDS011;2148;48.554;7.834;2023-06-10T16:05:16;4.50;;;4.10;;
4268;SDS011;2148;48.554;7.834;2023-06-10T16:07:42;4.63;;;4.30;;
4268;SDS011;2148;48.554;7.834;2023-06-10T16:10:07;5.32;;;4.38;;
4268;SDS011;2148;48.554;7.834;2023-06-10T16:12:32;5.28;;;4.78;;
4268;SDS011;2148;48.554;7.834;2023-06-10T16:14:58;5.00;;;4.60;;
4268;SDS011;2148;48.554;7.834;2023-06-10T16:17:23;6.15;;;4.90;;
4268;SDS011;2148;48.554;7.834;2023-06-10T16:19:48;5.40;;;4.90;;